Shelby County Airport Alabaster US
ICAO: KEET
IATA: EET
Category: Medium
Scheduled Services: No

Elevation: 586 ft
TransAlt. 18000 ft.

Airport Communications:
BIRMINGHAM APP/DEP:123.8
ASOS:134.325
CTAF/UNICOM:122.7

KEET Zoom In..

If you have problems with the map follow the link
https://www.worldairports.se/pages/airport.php?
ICAO=KEET

Runways:

(A) RW 16 length 5000 ft width 75 ft
---- / hdg 160

(B) RW 34 length 5000 ft width 75 ft
---- / hdg 340

Location; KEET
Day. 12 / Time. 11.53 Zulu
* Altimeter: 30.44
* Temperature: 01° c. 33.8°f.
* Wind from: 060° Speed 04 kn.
Dewpoint: -04° c.
Visibility: 10 Statute Miles.
Clouds: Clear (automated report).

KEET 121153Z AUTO 06004KT 10SM CLR 01/M04 A3044 RMK AO2 SLP310 T00111039 10039 20011 56004


Wind From 060°
Speed 04 kn.

 
 
jpsmedia worldairports.se 2019   terms of use